Time;durP1;ratioP1;P1;durP2;ratioP2;P2;SDS_P1;SDS_P2;PMS_P1;PMS_P2;Temp;Humidity;BMP_temperature;BMP_pressure;BME280_temperature;BME280_humidity;BME280_pressure;Samples;Min_cycle;Max_cycle;Signal;HPM_P1;HPM_P2
2023/06/23 00:00:22;;;;;;;14.23;5.70;;;;;;;21.10;61.11;100486.80;1798491;80;21817;-80
2023/06/23 00:03:28;;;;;;;10.23;6.58;;;;;;;21.09;61.38;100482.88;1796843;80;21303;-81
2023/06/23 00:06:34;;;;;;;17.30;5.97;;;;;;;21.07;61.72;100488.66;1795724;80;21272;-81
2023/06/23 00:09:40;;;;;;;9.00;5.20;;;;;;;20.97;62.03;100480.63;1798549;80;21825;-80
2023/06/23 00:12:47;;;;;;;8.98;5.95;;;;;;;21.01;61.84;100482.68;1797307;79;21734;-80
2023/06/23 00:15:53;;;;;;;13.00;6.78;;;;;;;21.18;61.34;100480.03;1797882;78;21370;-82
2023/06/23 00:19:00;;;;;;;13.38;5.85;;;;;;;21.03;61.77;100473.57;1797592;80;21296;-80
2023/06/23 00:22:05;;;;;;;15.53;6.80;;;;;;;20.88;62.26;100470.39;1796830;80;21852;-80
2023/06/23 00:25:11;;;;;;;10.90;5.83;;;;;;;20.95;61.99;100473.08;1798348;80;21288;-81
2023/06/23 00:28:18;;;;;;;15.08;6.08;;;;;;;21.05;61.77;100467.20;1798460;80;21272;-81
2023/06/23 05:20:46;;;;;;;5.67;2.30;;;;;;;31.05;39.41;100466.80;1787340;79;21753;-82
2023/06/23 05:23:52;;;;;;;8.05;2.83;;;;;;;31.24;39.37;100455.44;1799115;79;21856;-82
2023/06/23 05:26:57;;;;;;;8.65;2.45;;;;;;;31.51;38.93;100454.69;1799645;79;21346;-82
2023/06/23 05:30:04;;;;;;;6.37;2.55;;;;;;;31.70;37.91;100448.94;1800706;79;21284;-82
2023/06/23 05:33:10;;;;;;;4.92;2.27;;;;;;;31.75;37.33;100454.48;1799709;79;21844;-81
2023/06/23 05:36:20;;;;;;;5.83;2.50;;;;;;;31.73;37.68;100449.73;1799888;79;21308;-81
2023/06/23 05:39:26;;;;;;;4.17;2.95;;;;;;;31.87;36.93;100448.34;1800622;79;21272;-82
2023/06/23 05:42:32;;;;;;;3.27;2.22;;;;;;;32.03;37.25;100451.09;1799330;79;21331;-82
2023/06/23 05:45:38;;;;;;;5.28;2.35;;;;;;;32.09;36.70;100444.19;1800691;79;21354;-81
2023/06/23 05:48:49;;;;;;;8.83;2.50;;;;;;;32.23;36.58;100448.38;1803110;79;21280;-83
2023/06/23 05:51:57;;;;;;;6.92;2.60;;;;;;;32.22;36.39;100451.78;1801435;79;21259;-82
2023/06/23 05:54:58;;;;;;;13.00;2.58;;;;;;;32.43;35.58;100439.45;1802822;79;21295;-82
2023/06/23 05:58:07;;;;;;;12.75;2.55;;;;;;;32.43;35.58;100439.45;1803081;79;21284;-81
2023/06/23 06:01:16;;;;;;;4.47;2.10;;;;;;;32.34;36.12;100443.34;1802693;79;21860;-82
2023/06/23 06:04:22;;;;;;;3.30;2.43;;;;;;;32.21;36.49;100448.70;1803491;79;21308;-82
2023/06/23 06:07:29;;;;;;;3.52;2.25;;;;;;;32.48;36.08;100442.74;1802869;79;21296;-82
2023/06/23 06:10:34;;;;;;;7.67;2.65;;;;;;;32.55;36.04;100431.80;1783202;79;21316;-82
2023/06/23 06:13:47;;;;;;;10.05;2.27;;;;;;;32.55;36.04;100431.80;1792702;79;21257;-81
2023/06/23 06:16:52;;;;;;;12.03;2.40;;;;;;;32.58;35.84;100442.49;1786284;79;21299;-82
2023/06/23 06:19:59;;;;;;;5.47;2.90;;;;;;;32.66;35.63;100431.82;1802943;79;21268;-82
2023/06/23 06:23:05;;;;;;;14.98;2.58;;;;;;;32.73;35.32;100425.11;1766067;79;21289;-82
2023/06/23 06:26:11;;;;;;;6.62;2.65;;;;;;;32.90;35.19;100434.91;1743001;81;21320;-82
2023/06/23 06:29:17;;;;;;;6.12;2.35;;;;;;;33.12;35.11;100439.72;1717096;81;21273;-82
2023/06/23 06:32:23;;;;;;;14.87;2.98;;;;;;;33.31;35.00;100441.20;1725047;82;21164;-82
2023/06/23 06:35:28;;;;;;;4.75;2.67;;;;;;;33.50;34.18;100434.45;1725042;83;21848;-82
2023/06/23 06:38:35;;;;;;;12.45;2.80;;;;;;;33.53;34.21;100434.64;1724972;83;21256;-82
2023/06/23 06:41:42;;;;;;;7.67;2.65;;;;;;;33.79;33.58;100424.81;1725057;83;21245;-82
2023/06/23 06:44:47;;;;;;;5.15;2.33;;;;;;;33.67;33.96;100417.51;1730510;82;21316;-83
2023/06/23 06:47:55;;;;;;;10.90;2.80;;;;;;;33.96;33.35;100425.45;1734975;82;21293;-82
2023/06/23 06:51:02;;;;;;;7.78;3.58;;;;;;;34.15;32.82;100425.16;1735065;83;21313;-82
2023/06/23 06:54:07;;;;;;;6.47;2.70;;;;;;;34.10;32.52;100427.33;1734876;83;21309;-81
2023/06/23 06:57:15;;;;;;;9.10;2.58;;;;;;;34.26;31.90;100426.52;1733488;83;21343;-81
2023/06/23 07:00:25;;;;;;;9.18;3.10;;;;;;;34.47;31.74;100422.45;1747001;81;21868;-81
2023/06/23 07:03:32;;;;;;;9.90;2.90;;;;;;;34.56;31.84;100416.78;1729926;81;21268;-81
2023/06/23 07:06:40;;;;;;;9.90;2.92;;;;;;;34.96;31.22;100410.89;1748591;81;21859;-81
2023/06/23 07:09:46;;;;;;;4.45;2.98;;;;;;;34.92;31.07;100415.58;1744522;81;21356;-81
2023/06/23 07:12:52;;;;;;;7.20;2.77;;;;;;;35.30;30.85;100413.66;1741721;81;21091;-81
2023/06/23 07:15:58;;;;;;;5.97;2.80;;;;;;;35.26;30.93;100414.67;1741777;81;21297;-81
2023/06/23 07:19:05;;;;;;;5.20;3.08;;;;;;;35.11;30.37;100409.55;1752826;81;21877;-82
2023/06/23 07:22:10;;;;;;;8.98;2.72;;;;;;;35.05;30.50;100404.61;1740945;81;21270;-81
2023/06/23 07:25:17;;;;;;;6.62;2.87;;;;;;;34.92;30.65;100405.64;1770344;80;21779;-81
2023/06/23 07:28:22;;;;;;;7.22;3.22;;;;;;;34.71;30.59;100394.95;1772205;79;21268;-82
2023/06/23 07:31:28;;;;;;;5.20;3.22;;;;;;;34.57;30.84;100402.23;1762393;79;21614;-82
2023/06/23 07:34:37;;;;;;;4.67;2.62;;;;;;;34.62;30.40;100396.97;1783095;79;21611;-81
2023/06/23 07:37:43;;;;;;;6.62;3.08;;;;;;;34.32;30.63;100403.89;1779100;80;21252;-82
2023/06/23 07:40:49;;;;;;;8.58;3.17;;;;;;;34.68;30.09;100396.23;1777326;80;21881;-80
2023/06/23 07:43:55;;;;;;;8.40;3.15;;;;;;;34.61;29.53;100395.31;1758160;80;21344;-80
2023/06/23 07:47:00;;;;;;;7.08;3.02;;;;;;;34.61;29.41;100397.31;1788932;80;21248;-81
2023/06/23 07:50:07;;;;;;;18.40;3.25;;;;;;;34.44;30.27;100393.86;1790229;80;21336;-82
2023/06/23 07:53:13;;;;;;;8.00;3.25;;;;;;;34.57;30.25;100390.05;1739727;81;21277;-80
2023/06/23 07:56:19;;;;;;;10.90;3.05;;;;;;;34.57;30.31;100395.73;1771047;80;21877;-82
2023/06/23 07:59:29;;;;;;;3.72;2.70;;;;;;;34.75;30.04;100383.17;1774576;79;21307;-81
2023/06/23 08:02:33;;;;;;;10.48;2.90;;;;;;;34.88;29.86;100383.33;1781957;80;21256;-82
2023/06/23 08:05:41;;;;;;;9.40;2.83;;;;;;;35.23;29.29;100384.91;1772467;80;21845;-81
2023/06/23 08:08:48;;;;;;;12.68;2.90;;;;;;;35.22;29.00;100370.45;1776497;79;21829;-81
2023/06/23 08:11:56;;;;;;;4.58;2.95;;;;;;;35.01;29.01;100372.38;1765345;80;21340;-81
2023/06/23 08:15:02;;;;;;;5.55;3.00;;;;;;;34.88;29.34;100366.28;1784812;80;21272;-81
2023/06/23 08:18:08;;;;;;;8.75;2.67;;;;;;;34.90;29.57;100371.03;1768972;79;21323;-81
2023/06/23 08:21:14;;;;;;;5.33;2.98;;;;;;;35.22;29.15;100364.77;1777888;80;21359;-82
2023/06/23 08:24:20;;;;;;;6.22;3.75;;;;;;;35.33;28.37;100365.21;1763798;78;21881;-82
2023/06/23 08:27:25;;;;;;;9.08;3.10;;;;;;;35.21;28.20;100361.68;1771983;80;21256;-80
2023/06/23 08:30:34;;;;;;;8.80;2.98;;;;;;;35.05;28.81;100355.73;1785758;79;21300;-81
2023/06/23 08:33:41;;;;;;;16.10;3.22;;;;;;;35.18;28.98;100349.56;1783162;80;21270;-81
2023/06/23 08:36:48;;;;;;;7.72;2.95;;;;;;;34.96;29.24;100348.38;1770656;79;21874;-81
2023/06/23 08:39:54;;;;;;;11.95;2.67;;;;;;;34.89;29.40;100348.05;1768167;80;21930;-81
2023/06/23 08:42:54;;;;;;;5.80;3.27;;;;;;;34.92;29.39;100341.11;1769568;80;21265;-81
2023/06/23 08:45:48;;;;;;;5.50;2.67;;;;;;;35.07;28.66;100342.59;1788747;79;21312;-81
2023/06/23 08:48:58;;;;;;;12.93;2.90;;;;;;;35.05;28.05;100342.95;1777586;80;21300;-82
2023/06/23 08:52:04;;;;;;;7.78;2.80;;;;;;;35.07;29.02;100341.17;1765760;80;21860;-81
2023/06/23 08:55:10;;;;;;;8.48;2.62;;;;;;;35.15;29.38;100341.73;1780973;79;21292;-81
2023/06/23 08:58:17;;;;;;;7.65;3.05;;;;;;;35.13;28.99;100336.96;1777993;79;21283;-80
2023/06/23 09:01:23;;;;;;;4.40;2.80;;;;;;;34.94;28.93;100345.03;1770750;80;21334;-81
2023/06/23 09:04:29;;;;;;;11.33;3.08;;;;;;;34.94;28.20;100340.17;1779782;80;21291;-82
2023/06/23 09:07:34;;;;;;;5.45;3.17;;;;;;;34.70;29.19;100334.23;1782033;79;21862;-81
2023/06/23 09:10:39;;;;;;;6.80;3.00;;;;;;;35.12;28.38;100329.61;1784610;80;21303;-81
2023/06/23 09:13:46;;;;;;;4.95;2.90;;;;;;;34.97;29.01;100328.77;1786274;79;21595;-81
2023/06/23 09:16:50;;;;;;;10.72;3.00;;;;;;;35.27;28.45;100329.63;1775255;80;21911;-81
2023/06/23 09:19:57;;;;;;;8.08;3.20;;;;;;;35.57;28.67;100327.64;1791573;79;21844;-80
2023/06/23 09:23:04;;;;;;;8.18;2.50;;;;;;;35.52;28.26;100325.83;1771994;79;21264;-81
2023/06/23 09:26:11;;;;;;;13.40;3.33;;;;;;;35.74;28.47;100326.12;1759536;81;21327;-81
2023/06/23 09:29:29;;;;;;;7.20;3.47;;;;;;;35.86;28.35;100320.28;1764841;81;21268;-80
2023/06/23 09:32:38;;;;;;;8.10;3.10;;;;;;;35.94;28.30;100306.55;1764968;81;21264;-81
2023/06/23 09:35:43;;;;;;;9.15;2.98;;;;;;;35.92;28.26;100314.63;1773524;79;21299;-81
2023/06/23 09:38:49;;;;;;;9.63;3.77;;;;;;;35.84;28.42;100302.11;1776109;79;21832;-81
2023/06/23 09:42:01;;;;;;;8.48;3.35;;;;;;;35.99;28.07;100307.80;1793146;79;21255;-81
2023/06/23 09:45:07;;;;;;;7.22;3.60;;;;;;;35.93;27.91;100303.47;1789193;79;21271;-81
2023/06/23 09:48:25;;;;;;;13.90;4.58;;;;;;;36.09;27.97;100305.98;1771668;81;21625;-82
2023/06/23 09:51:30;;;;;;;16.40;4.60;;;;;;;36.09;28.05;100301.71;1770133;81;21319;-80
2023/06/23 09:54:46;;;;;;;5.33;2.90;;;;;;;36.12;27.65;100308.70;1790619;79;21871;-81
2023/06/23 09:57:53;;;;;;;10.03;3.92;;;;;;;36.17;27.23;100297.93;1802176;79;21215;-81
2023/06/23 10:01:10;;;;;;;7.40;3.30;;;;;;;36.19;27.47;100304.13;1779588;79;21865;-81
2023/06/23 10:04:09;;;;;;;8.88;3.45;;;;;;;36.19;27.46;100292.73;1799622;79;21265;-81
2023/06/23 10:07:32;;;;;;;8.10;3.37;;;;;;;36.20;27.73;100290.12;1786235;79;21864;-82
2023/06/23 10:10:38;;;;;;;8.78;3.55;;;;;;;36.25;27.35;100295.61;1803065;79;21308;-82
2023/06/23 10:13:44;;;;;;;3.55;3.15;;;;;;;36.26;27.31;100289.31;1803208;79;21268;-81
2023/06/23 10:16:57;;;;;;;7.60;3.42;;;;;;;36.24;27.57;100286.83;1793623;79;21311;-82
2023/06/23 10:20:00;;;;;;;12.73;4.62;;;;;;;36.23;27.28;100280.04;1795515;80;21289;-81
2023/06/23 10:23:07;;;;;;;7.20;3.60;;;;;;;36.06;27.24;100276.78;1797701;79;21864;-81
2023/06/23 10:26:12;;;;;;;7.08;3.40;;;;;;;36.07;27.90;100265.62;1789567;79;21299;-81
2023/06/23 10:29:22;;;;;;;7.65;3.62;;;;;;;36.18;27.59;100267.45;1803339;79;21268;-81
2023/06/23 10:32:33;;;;;;;8.47;3.93;;;;;;;36.56;27.54;100267.27;1781950;79;21842;-81
2023/06/23 10:35:39;;;;;;;10.55;3.67;;;;;;;36.79;27.31;100271.33;1764509;81;21339;-82
2023/06/23 10:38:48;;;;;;;5.58;3.52;;;;;;;36.65;27.19;100267.15;1733649;81;21284;-81
2023/06/23 10:41:58;;;;;;;8.10;3.83;;;;;;;36.83;26.69;100265.16;1771142;80;21646;-82
2023/06/23 10:45:02;;;;;;;5.80;3.65;;;;;;;36.83;25.89;100253.77;1763530;79;21292;-82
2023/06/23 10:48:08;;;;;;;7.65;3.70;;;;;;;36.86;26.54;100252.23;1756965;81;21311;-81
2023/06/23 10:51:14;;;;;;;8.43;3.80;;;;;;;36.86;26.68;100259.36;1781183;80;21295;-82
2023/06/23 10:54:20;;;;;;;5.72;3.62;;;;;;;36.92;26.46;100250.84;1756609;79;21300;-82
2023/06/23 10:57:25;;;;;;;10.35;4.03;;;;;;;37.13;26.09;100246.47;1782793;79;21264;-81
2023/06/23 11:00:34;;;;;;;10.55;3.60;;;;;;;36.90;26.23;100241.80;1802290;79;21347;-81
2023/06/23 11:03:41;;;;;;;8.05;3.60;;;;;;;36.98;26.36;100235.75;1784125;79;21876;-81
2023/06/23 11:06:47;;;;;;;9.53;3.87;;;;;;;37.09;26.02;100241.23;1794111;79;21895;-80
2023/06/23 11:13:22;;;;;;;13.13;3.50;;;;;;;37.18;26.36;100227.69;1878280;76;22231;-80
2023/06/23 11:16:34;;;;;;;7.75;4.00;;;;;;;37.19;26.04;100226.50;1774262;80;21299;-79
2023/06/23 11:19:40;;;;;;;8.23;3.55;;;;;;;37.24;25.67;100223.40;1790114;79;21296;-79
2023/06/23 11:22:44;;;;;;;;;;;;;;;37.20;26.04;100226.73;1756537;79;21832;-81
2023/06/23 11:25:49;;;;;;;7.80;3.47;;;;;;;37.20;26.23;100226.73;1777514;79;20255;-82
2023/06/23 11:28:57;;;;;;;5.47;3.60;;;;;;;37.22;25.85;100222.08;1795832;79;21264;-82
2023/06/23 11:32:22;;;;;;;4.00;3.12;;;;;;;37.20;26.09;100203.09;1764841;79;21292;-81
2023/06/23 11:35:28;;;;;;;9.53;3.67;;;;;;;37.32;26.15;100211.04;1794712;79;21312;-81
2023/06/23 11:38:34;;;;;;;9.20;3.95;;;;;;;37.39;25.57;100209.63;1774575;80;21277;-82
2023/06/23 11:41:41;;;;;;;9.88;3.20;;;;;;;37.35;26.35;100206.63;1778157;79;21271;-82
2023/06/23 11:44:48;;;;;;;7.95;3.70;;;;;;;37.40;26.38;100207.00;1778123;79;21186;-82
2023/06/23 11:47:47;;;;;;;5.35;3.47;;;;;;;37.43;26.22;100187.75;1776114;80;21259;-83
2023/06/23 11:50:54;;;;;;;7.92;3.50;;;;;;;37.25;26.36;100189.41;1751178;82;21311;-82
2023/06/23 11:53:59;;;;;;;5.33;3.72;;;;;;;37.01;26.65;100192.30;1751391;82;21300;-82
2023/06/23 11:57:06;;;;;;;12.25;4.15;;;;;;;36.95;26.71;100185.18;1776454;80;21303;-82
2023/06/23 12:00:13;;;;;;;9.35;4.17;;;;;;;37.14;26.39;100195.38;1772495;79;21279;-82
2023/06/23 12:03:24;;;;;;;6.35;3.92;;;;;;;37.13;26.74;100190.88;1781244;80;21903;-81
2023/06/23 12:06:30;;;;;;;7.12;4.03;;;;;;;37.31;26.44;100180.87;1751619;80;21230;-80
2023/06/23 12:09:36;;;;;;;7.45;3.75;;;;;;;37.42;26.28;100174.09;1754794;82;21284;-81
2023/06/23 12:12:43;;;;;;;13.55;3.62;;;;;;;37.42;26.29;100161.86;1724741;82;21849;-81
2023/06/23 12:15:49;;;;;;;6.65;3.60;;;;;;;37.43;26.35;100162.08;1779812;79;21288;-81
2023/06/23 12:18:58;;;;;;;7.85;3.65;;;;;;;37.41;26.43;100158.74;1747243;81;21259;-81
2023/06/23 12:22:03;;;;;;;12.37;3.62;;;;;;;37.41;26.32;100154.47;1766644;81;21292;-81
2023/06/23 12:25:09;;;;;;;10.80;3.80;;;;;;;37.06;26.25;100144.42;1744851;81;21295;-80
2023/06/23 12:28:21;;;;;;;9.98;3.22;;;;;;;36.90;26.25;100144.90;1772988;81;21304;-81
2023/06/23 12:31:34;;;;;;;6.25;3.85;;;;;;;36.88;26.39;100145.83;1798928;79;21295;-81
2023/06/23 12:34:45;;;;;;;10.08;3.55;;;;;;;36.81;26.30;100142.16;1768812;80;21786;-81
2023/06/23 12:37:53;;;;;;;7.53;3.87;;;;;;;36.74;26.97;100134.80;1782257;80;21249;-82
2023/06/23 12:41:00;;;;;;;6.87;3.80;;;;;;;36.70;26.95;100142.42;1764471;81;21331;-81
2023/06/23 12:44:07;;;;;;;8.93;4.00;;;;;;;36.67;26.81;100123.78;1760393;80;21268;-81
2023/06/23 12:47:13;;;;;;;6.47;3.58;;;;;;;36.91;26.85;100132.93;1752019;82;21374;-81
2023/06/23 12:50:20;;;;;;;6.75;3.70;;;;;;;37.01;26.66;100135.28;1752237;82;21306;-81
2023/06/23 12:53:28;;;;;;;7.40;3.77;;;;;;;36.82;27.27;100135.87;1753717;80;21327;-80
2023/06/23 12:56:33;;;;;;;9.53;3.42;;;;;;;36.86;26.86;100141.09;1751344;82;21311;-81
2023/06/23 12:59:39;;;;;;;6.10;3.50;;;;;;;36.82;26.62;100136.70;1752179;82;21892;-81
2023/06/23 13:02:46;;;;;;;4.95;3.15;;;;;;;36.76;27.07;100135.28;1762893;80;21251;-81
2023/06/23 13:05:54;;;;;;;5.62;3.20;;;;;;;36.86;27.27;100132.55;1766779;80;21299;-81
2023/06/23 13:09:02;;;;;;;9.73;3.53;;;;;;;36.94;26.75;100127.95;1773065;81;21940;-82
2023/06/23 13:12:08;;;;;;;6.60;3.58;;;;;;;37.00;26.64;100126.50;1771787;81;21948;-82
2023/06/23 13:15:15;;;;;;;10.85;3.62;;;;;;;36.88;26.38;100123.62;1791523;79;21335;-82
2023/06/23 13:18:14;;;;;;;4.65;3.08;;;;;;;36.83;26.55;100114.73;1721338;83;21343;-83
2023/06/23 13:21:06;;;;;;;5.28;3.27;;;;;;;36.90;26.36;100114.14;1751081;82;21316;-82
2023/06/23 13:24:06;;;;;;;5.80;3.52;;;;;;;36.67;26.76;100106.69;1751103;82;21308;-81
2023/06/23 13:26:58;;;;;;;7.47;3.60;;;;;;;36.77;26.89;100110.47;1750269;81;21334;-82
2023/06/23 13:30:03;;;;;;;9.53;3.67;;;;;;;36.90;26.25;100107.02;1750940;82;21342;-83
2023/06/23 13:33:10;;;;;;;7.97;3.47;;;;;;;36.79;26.14;100121.73;1752154;82;21335;-82
2023/06/23 13:36:15;;;;;;;8.90;3.70;;;;;;;36.61;25.74;100113.22;1751364;81;21347;-82
2023/06/23 13:39:22;;;;;;;10.20;3.80;;;;;;;36.38;26.34;100106.30;1746481;81;21300;-82
2023/06/23 13:42:27;;;;;;;7.22;4.03;;;;;;;36.31;27.00;100104.02;1714623;83;21303;-82
2023/06/23 13:45:33;;;;;;;10.10;3.90;;;;;;;36.15;26.95;100106.73;1712896;83;21300;-81
2023/06/23 13:48:39;;;;;;;10.90;4.00;;;;;;;36.08;27.19;100101.60;1736567;81;21798;-82
2023/06/23 13:51:45;;;;;;;10.68;3.90;;;;;;;35.87;27.44;100101.42;1690840;82;21326;-81
2023/06/23 13:54:51;;;;;;;6.28;4.17;;;;;;;35.84;27.76;100090.14;1769829;81;21311;-82
2023/06/23 13:57:57;;;;;;;9.78;3.72;;;;;;;35.79;28.04;100086.09;1770656;81;21273;-82
2023/06/23 14:01:02;;;;;;;8.40;3.70;;;;;;;35.87;28.42;100073.80;1770342;81;21307;-82
2023/06/23 14:04:08;;;;;;;5.28;3.70;;;;;;;36.07;28.23;100072.91;1770182;81;21272;-82
2023/06/23 14:07:13;;;;;;;9.23;4.20;;;;;;;36.26;27.93;100078.63;1770397;81;21323;-81
2023/06/23 14:10:33;;;;;;;7.20;4.10;;;;;;;36.19;28.07;100067.84;1742999;82;21340;-82
2023/06/23 14:13:40;;;;;;;6.53;3.65;;;;;;;36.40;28.04;100069.73;1740123;82;21803;-82
2023/06/23 14:16:46;;;;;;;6.70;3.70;;;;;;;36.40;27.85;100068.31;1779097;80;21299;-82
2023/06/23 14:19:52;;;;;;;10.20;4.78;;;;;;;36.61;27.16;100066.22;1779375;80;21280;-82
2023/06/23 14:22:58;;;;;;;7.55;3.83;;;;;;;36.31;28.25;100060.71;1779341;80;21247;-81
2023/06/23 14:26:04;;;;;;;10.75;3.80;;;;;;;36.29;28.31;100067.97;1810625;79;21315;-82
2023/06/23 14:29:09;;;;;;;7.25;4.12;;;;;;;36.16;28.00;100068.53;1779390;80;21287;-82
2023/06/23 14:32:15;;;;;;;11.63;4.25;;;;;;;35.82;28.45;100072.01;1777920;80;21368;-83
2023/06/23 14:35:21;;;;;;;11.60;4.12;;;;;;;36.01;28.27;100067.22;1778399;80;21828;-82
2023/06/23 14:38:27;;;;;;;9.83;4.12;;;;;;;35.91;28.32;100062.55;1779372;80;21868;-82
2023/06/23 14:41:33;;;;;;;11.95;4.53;;;;;;;35.92;28.42;100059.94;1778389;80;21389;-82
2023/06/23 14:44:39;;;;;;;9.00;4.33;;;;;;;35.80;28.45;100058.70;1777886;80;21320;-82
2023/06/23 14:47:44;;;;;;;10.23;4.58;;;;;;;35.87;28.78;100061.59;1777813;80;21319;-81
2023/06/23 14:50:49;;;;;;;6.35;4.05;;;;;;;36.18;28.61;100054.77;1778918;80;21311;-82
2023/06/23 14:53:56;;;;;;;7.75;4.53;;;;;;;36.25;28.78;100056.45;1779274;80;21315;-82
2023/06/23 14:57:01;;;;;;;9.70;4.53;;;;;;;36.24;28.72;100052.55;1778176;80;21386;-83
2023/06/23 15:00:08;;;;;;;10.98;4.05;;;;;;;36.53;28.28;100053.75;1778954;80;21314;-82
2023/06/23 15:03:14;;;;;;;13.62;4.20;;;;;;;36.55;28.22;100051.95;1779096;80;21311;-80
2023/06/23 15:06:24;;;;;;;8.00;4.83;;;;;;;36.59;28.30;100048.03;1778141;80;21319;-82
2023/06/23 15:09:29;;;;;;;7.70;4.03;;;;;;;36.70;28.09;100058.38;1778078;80;21303;-83
2023/06/23 15:12:34;;;;;;;24.10;4.75;;;;;;;36.72;27.99;100058.00;1779283;80;21307;-82
2023/06/23 15:15:41;;;;;;;12.58;4.83;;;;;;;36.65;28.15;100052.89;1774337;80;21288;-82
2023/06/23 15:18:46;;;;;;;9.48;4.47;;;;;;;36.25;28.79;100047.08;1765131;81;21280;-82
2023/06/23 15:21:53;;;;;;;9.33;4.17;;;;;;;36.27;29.02;100039.83;1835067;78;21330;-81
2023/06/23 15:25:00;;;;;;;10.20;4.30;;;;;;;36.49;28.84;100040.58;1834906;78;21299;-81
2023/06/23 15:28:06;;;;;;;8.08;4.67;;;;;;;36.31;29.21;100029.98;1765520;81;21213;-82
2023/06/23 15:31:12;;;;;;;10.98;6.12;;;;;;;36.32;29.03;100027.37;1836258;78;21264;-82
2023/06/23 15:34:17;;;;;;;15.20;6.70;;;;;;;35.86;28.88;100030.06;1836004;78;21252;-81
2023/06/23 15:37:23;;;;;;;9.70;5.80;;;;;;;35.58;29.36;100032.12;1765339;81;21809;-81
2023/06/23 15:40:29;;;;;;;11.20;5.10;;;;;;;35.40;29.62;100024.91;1834868;78;21845;-82
2023/06/23 15:43:35;;;;;;;11.03;5.12;;;;;;;35.36;29.49;100021.11;1836405;78;21848;-82
2023/06/23 15:46:40;;;;;;;12.60;4.72;;;;;;;35.16;29.59;100030.73;1835124;78;21805;-82
2023/06/23 15:49:47;;;;;;;6.37;4.55;;;;;;;35.02;29.77;100033.04;1765212;81;21861;-82
2023/06/23 15:52:53;;;;;;;7.37;4.67;;;;;;;34.82;30.19;100025.56;1836236;78;21221;-82
2023/06/23 15:55:59;;;;;;;12.98;4.87;;;;;;;35.02;30.04;100030.20;1835784;78;21822;-83
2023/06/23 15:59:04;;;;;;;7.08;4.90;;;;;;;34.99;30.37;100023.19;1765456;81;21276;-83
2023/06/23 16:02:10;;;;;;;15.83;5.00;;;;;;;34.94;30.74;100023.95;1835903;78;21758;-82
2023/06/23 16:05:17;;;;;;;9.83;4.47;;;;;;;34.72;31.23;100017.42;1834883;78;21285;-82
2023/06/23 16:08:23;;;;;;;14.58;5.22;;;;;;;34.80;31.75;100018.55;1836443;78;21386;-82
2023/06/23 16:11:29;;;;;;;10.18;4.95;;;;;;;34.80;31.79;100023.64;1835490;78;21283;-81
2023/06/23 16:14:34;;;;;;;14.70;4.90;;;;;;;34.67;31.95;100016.21;1836382;78;21157;-81
2023/06/23 16:17:40;;;;;;;8.88;4.72;;;;;;;34.64;32.05;100018.93;1833638;78;21272;-82
2023/06/23 16:20:47;;;;;;;11.00;4.78;;;;;;;34.68;31.90;100017.90;1836202;78;21271;-81
2023/06/23 16:23:52;;;;;;;8.73;5.17;;;;;;;34.54;32.07;100020.17;1836513;78;21734;-81
2023/06/23 16:26:58;;;;;;;8.40;5.17;;;;;;;34.57;32.76;100022.30;1835921;78;21184;-82
2023/06/23 16:30:05;;;;;;;8.95;4.72;;;;;;;34.50;32.26;100029.12;1836317;78;21197;-81
2023/06/23 16:33:12;;;;;;;7.85;4.75;;;;;;;34.17;32.35;100028.95;1834955;78;21296;-82
2023/06/23 16:36:17;;;;;;;8.45;4.47;;;;;;;33.99;32.46;100038.11;1835706;78;21297;-81
2023/06/23 16:39:23;;;;;;;8.13;5.10;;;;;;;33.90;32.40;100039.52;1836380;78;21162;-82
2023/06/23 16:42:29;;;;;;;11.12;5.00;;;;;;;33.90;32.40;100039.52;1836396;78;21714;-81
2023/06/23 16:45:34;;;;;;;16.02;4.97;;;;;;;33.87;32.67;100047.88;1765244;81;21832;-82
2023/06/23 16:48:41;;;;;;;17.85;4.78;;;;;;;33.81;32.96;100045.81;1836399;78;21188;-81
2023/06/23 16:51:48;;;;;;;7.03;5.10;;;;;;;33.70;33.21;100048.19;1764399;81;21841;-81
2023/06/23 16:54:54;;;;;;;12.35;4.92;;;;;;;33.56;33.49;100055.47;1836362;78;21145;-82
2023/06/23 16:58:01;;;;;;;15.15;5.20;;;;;;;33.31;33.96;100057.15;1835161;78;21858;-81
2023/06/23 17:01:07;;;;;;;7.15;4.58;;;;;;;33.16;34.38;100051.97;1835679;78;21645;-83
2023/06/23 17:04:14;;;;;;;14.40;5.40;;;;;;;32.82;35.04;100046.51;1834325;78;21256;-81
2023/06/23 17:07:20;;;;;;;8.53;4.22;;;;;;;32.70;35.39;100055.39;1835442;78;21316;-82
2023/06/23 17:10:41;;;;;;;17.07;4.87;;;;;;;32.70;35.40;100054.84;1835951;78;21196;-82
2023/06/23 17:13:49;;;;;;;8.68;5.28;;;;;;;32.37;36.16;100054.98;1836332;78;21161;-82
2023/06/23 17:16:56;;;;;;;12.07;4.40;;;;;;;32.10;36.66;100040.48;1835026;78;21300;-82
2023/06/23 17:20:03;;;;;;;11.68;5.40;;;;;;;31.97;36.82;100045.07;1763781;81;21340;-82
2023/06/23 17:23:10;;;;;;;8.53;5.03;;;;;;;32.04;36.26;100039.77;1836102;78;21163;-81
2023/06/23 17:26:15;;;;;;;10.23;5.35;;;;;;;32.29;35.62;100043.29;1835008;78;21925;-82
2023/06/23 17:29:21;;;;;;;11.22;5.30;;;;;;;32.36;35.47;100040.55;1836248;78;21259;-82
2023/06/23 17:32:27;;;;;;;8.20;5.30;;;;;;;32.25;35.53;100035.78;1765302;81;21299;-81
2023/06/23 17:35:35;;;;;;;11.70;5.17;;;;;;;32.08;35.61;100035.12;1836068;78;21295;-81
2023/06/23 17:38:41;;;;;;;16.10;6.33;;;;;;;31.72;36.30;100024.80;1834691;78;21291;-81
2023/06/23 17:41:51;;;;;;;18.80;5.80;;;;;;;31.58;36.52;100021.81;1834761;78;21295;-82
2023/06/23 17:44:56;;;;;;;12.93;5.60;;;;;;;31.76;36.28;100026.38;1836236;78;21161;-81
2023/06/23 17:48:01;;;;;;;12.07;5.83;;;;;;;31.80;36.30;100022.57;1835582;78;21299;-82
2023/06/23 17:51:07;;;;;;;10.18;5.97;;;;;;;31.40;36.89;100020.86;1835919;78;21284;-82
2023/06/23 17:54:14;;;;;;;10.45;6.30;;;;;;;31.19;37.35;100021.33;1818122;78;21829;-81
2023/06/23 17:57:19;;;;;;;12.33;5.62;;;;;;;31.12;37.54;100023.78;1836149;78;21939;-81
2023/06/23 18:00:25;;;;;;;12.28;6.12;;;;;;;31.01;37.74;100021.80;1836362;78;21232;-81
2023/06/23 18:03:31;;;;;;;10.20;6.17;;;;;;;30.95;38.01;100024.46;1835727;78;21283;-81
2023/06/23 18:06:36;;;;;;;13.05;6.15;;;;;;;30.69;38.60;100024.79;1835327;78;21300;-82
2023/06/23 18:09:43;;;;;;;11.73;5.78;;;;;;;30.56;38.88;100025.07;1836231;78;21133;-82
2023/06/23 18:12:51;;;;;;;20.12;6.33;;;;;;;30.73;38.78;100029.52;1763368;81;21142;-81
2023/06/23 18:15:56;;;;;;;13.32;6.72;;;;;;;30.51;39.07;100036.47;1835808;78;21833;-81
2023/06/23 18:19:02;;;;;;;15.65;7.17;;;;;;;30.28;39.53;100031.32;1833489;78;21300;-81
2023/06/23 18:22:08;;;;;;;12.10;6.95;;;;;;;30.41;39.50;100036.13;1802227;78;21797;-81
2023/06/23 18:25:15;;;;;;;10.93;6.12;;;;;;;30.48;39.38;100035.69;1807921;78;21790;-80
2023/06/23 18:28:20;;;;;;;11.22;6.45;;;;;;;30.27;39.80;100036.13;1811679;78;21239;-81
2023/06/23 18:31:25;;;;;;;14.65;7.90;;;;;;;29.99;40.37;100049.36;1816948;78;21825;-81
2023/06/23 18:34:32;;;;;;;13.90;7.12;;;;;;;29.94;40.62;100048.05;1811865;78;21259;-82
2023/06/23 18:37:38;;;;;;;14.50;7.15;;;;;;;29.91;40.95;100045.02;1799866;79;21292;-81
2023/06/23 18:40:44;;;;;;;15.70;7.45;;;;;;;29.89;41.00;100049.56;1802690;79;21812;-81
2023/06/23 18:43:50;;;;;;;13.72;7.15;;;;;;;29.93;41.04;100052.60;1803142;79;21277;-82
2023/06/23 18:46:56;;;;;;;12.03;6.40;;;;;;;29.87;41.16;100043.96;1801777;79;21335;-81
2023/06/23 18:50:02;;;;;;;14.13;5.85;;;;;;;29.54;41.86;100047.64;1801758;79;21319;-82
2023/06/23 18:53:09;;;;;;;13.08;5.65;;;;;;;29.40;42.16;100043.92;1803278;79;21848;-81
2023/06/23 18:56:15;;;;;;;11.10;5.33;;;;;;;29.37;42.25;100045.13;1802564;79;21335;-81
2023/06/23 18:59:21;;;;;;;19.50;5.42;;;;;;;29.33;42.45;100042.66;1801947;79;21367;-82
2023/06/23 19:02:27;;;;;;;15.32;4.87;;;;;;;29.18;42.79;100038.96;1802070;79;21279;-82
2023/06/23 19:05:33;;;;;;;14.20;4.50;;;;;;;29.13;42.95;100041.03;1803036;79;21853;-83
2023/06/23 19:08:39;;;;;;;15.00;4.15;;;;;;;29.14;43.03;100037.89;1803185;79;21697;-82
2023/06/23 19:11:45;;;;;;;25.80;5.00;;;;;;;29.02;43.26;100044.55;1802447;79;21852;-81
2023/06/23 19:14:51;;;;;;;42.05;4.87;;;;;;;28.96;43.45;100042.39;1803624;79;21276;-80